Time;durP1;ratioP1;P1;durP2;ratioP2;P2;SDS_P1;SDS_P2;PMS_P1;PMS_P2;Temp;Humidity;BMP_temperature;BMP_pressure;BME280_temperature;BME280_humidity;BME280_pressure;Samples;Min_cycle;Max_cycle;Signal;HPM_P1;HPM_P2
2023/04/22 00:02:15;;;;;;;12.50;7.40;;;;;;;8.46;74.29;99173.17;105919;1254;73884;-72
2023/04/22 00:04:45;;;;;;;20.70;8.00;;;;;;;8.51;74.16;99170.31;105977;1254;60482;-71
2023/04/22 00:07:16;;;;;;;14.50;8.30;;;;;;;8.46;74.34;99167.48;106011;1258;60581;-72
2023/04/22 00:09:44;;;;;;;12.90;8.60;;;;;;;8.40;74.42;99171.14;106031;1253;72948;-74
2023/04/22 00:12:13;;;;;;;11.10;8.60;;;;;;;8.34;74.41;99171.30;105669;1254;70244;-72
2023/04/22 00:14:41;;;;;;;12.50;8.70;;;;;;;8.26;74.37;99169.27;105934;1254;74349;-73
2023/04/22 00:17:09;;;;;;;15.50;8.90;;;;;;;8.23;74.17;99168.77;105872;1254;61340;-70
2023/04/22 00:19:37;;;;;;;15.40;9.10;;;;;;;8.18;74.15;99165.04;105775;1257;60565;-71
2023/04/22 00:22:05;;;;;;;16.90;8.40;;;;;;;8.15;74.08;99166.86;105851;1256;73877;-72
2023/04/22 00:24:34;;;;;;;18.70;7.70;;;;;;;8.11;73.87;99171.30;105907;1254;70881;-71
2023/04/22 00:27:03;;;;;;;13.40;8.00;;;;;;;8.17;73.26;99171.50;105776;1258;71473;-70
2023/04/22 00:29:32;;;;;;;13.50;7.50;;;;;;;8.22;72.67;99177.11;106002;1254;61036;-70
2023/04/22 00:32:00;;;;;;;11.10;7.40;;;;;;;8.20;72.34;99178.42;106071;1256;60556;-72
2023/04/22 00:34:28;;;;;;;11.10;8.20;;;;;;;8.17;71.88;99179.80;105979;1254;74174;-76
2023/04/22 00:36:56;;;;;;;14.00;8.00;;;;;;;8.15;71.50;99182.11;105952;1256;69157;-73
2023/04/22 00:39:25;;;;;;;12.70;8.40;;;;;;;8.13;71.08;99178.70;105864;1254;73238;-72
2023/04/22 00:41:53;;;;;;;12.30;8.40;;;;;;;8.09;71.02;99181.88;105871;1254;61172;-71
2023/04/22 00:44:21;;;;;;;10.20;8.00;;;;;;;8.06;70.73;99184.55;105850;1256;60438;-73
2023/04/22 00:46:49;;;;;;;10.40;7.60;;;;;;;8.01;70.43;99181.52;105915;1254;74753;-75
2023/04/22 00:49:18;;;;;;;12.80;8.00;;;;;;;7.97;70.24;99186.52;105948;1253;69390;-73
2023/04/22 00:51:46;;;;;;;14.60;8.10;;;;;;;7.92;70.00;99182.66;105959;1256;70781;-73
2023/04/22 00:54:14;;;;;;;8.80;7.60;;;;;;;7.87;69.78;99182.98;105885;1253;60545;-74
2023/04/22 00:56:43;;;;;;;10.30;7.90;;;;;;;7.83;69.65;99185.70;105935;1255;60371;-72
2023/04/22 00:59:11;;;;;;;10.90;7.90;;;;;;;7.79;69.66;99186.16;105805;1253;73918;-75
2023/04/22 01:01:39;;;;;;;11.70;8.30;;;;;;;7.74;69.49;99185.60;105885;1256;68598;-72
2023/04/22 01:04:09;;;;;;;9.70;7.40;;;;;;;7.70;69.54;99179.94;106003;1253;73938;-71
2023/04/22 01:06:38;;;;;;;10.00;6.70;;;;;;;7.64;69.39;99179.92;105978;1254;61062;-73
2023/04/22 01:09:06;;;;;;;12.10;7.80;;;;;;;7.60;69.21;99181.64;105967;1254;60428;-73
2023/04/22 01:11:35;;;;;;;10.90;7.80;;;;;;;7.56;69.33;99184.23;105868;1254;74543;-72
2023/04/22 01:14:04;;;;;;;12.00;7.70;;;;;;;7.52;69.34;99182.54;106071;1254;69117;-72
2023/04/22 01:16:34;;;;;;;14.40;7.50;;;;;;;7.57;69.36;99182.30;105946;1254;71426;-75
2023/04/22 01:19:03;;;;;;;10.90;7.90;;;;;;;7.64;69.05;99183.16;105829;1254;60460;-74
2023/04/22 01:21:33;;;;;;;10.80;8.00;;;;;;;7.62;69.22;99185.11;105922;1253;60523;-72
2023/04/22 01:24:01;;;;;;;13.30;7.30;;;;;;;7.59;69.14;99187.75;105985;1256;72478;-71
2023/04/22 01:26:29;;;;;;;13.80;7.70;;;;;;;7.56;69.34;99185.14;105996;1254;71310;-73
2023/04/22 01:28:58;;;;;;;11.50;7.30;;;;;;;7.53;69.17;99184.20;106157;1257;71772;-71
2023/04/22 01:31:27;;;;;;;10.20;7.50;;;;;;;7.49;69.08;99182.65;106046;1254;60868;-71
2023/04/22 01:33:55;;;;;;;13.10;7.60;;;;;;;7.46;69.33;99186.31;106008;1254;61624;-73
2023/04/22 01:36:23;;;;;;;11.60;7.40;;;;;;;7.42;69.28;99188.64;105976;1256;73176;-75
2023/04/22 01:38:51;;;;;;;10.80;8.00;;;;;;;7.39;69.14;99187.27;105856;1254;69143;-75
2023/04/22 01:41:19;;;;;;;11.50;7.00;;;;;;;7.34;69.08;99190.23;105824;1254;71359;-72
2023/04/22 01:43:48;;;;;;;9.40;8.10;;;;;;;7.28;69.02;99189.23;105944;1253;60540;-73
2023/04/22 01:46:16;;;;;;;12.40;7.70;;;;;;;7.23;69.02;99191.86;105849;1254;61137;-72
2023/04/22 01:48:50;;;;;;;11.20;7.60;;;;;;;7.17;69.08;99191.40;105950;1254;73986;-73
2023/04/22 01:51:22;;;;;;;10.60;7.60;;;;;;;7.12;69.27;99193.42;105960;1256;69537;-73
2023/04/22 01:53:50;;;;;;;12.30;7.20;;;;;;;7.07;69.41;99191.89;105957;1253;72008;-71
2023/04/22 01:56:19;;;;;;;10.60;6.90;;;;;;;7.02;69.39;99194.02;105948;1254;61077;-70
2023/04/22 01:58:47;;;;;;;9.60;6.80;;;;;;;6.97;69.31;99195.58;105885;1254;60405;-71
2023/04/22 02:01:15;;;;;;;9.90;6.60;;;;;;;6.94;69.40;99201.97;105991;1253;72868;-71
2023/04/22 02:03:43;;;;;;;8.90;6.30;;;;;;;7.00;69.26;99195.46;106012;1253;71902;-71
2023/04/22 02:06:12;;;;;;;9.80;6.60;;;;;;;7.08;69.18;99201.15;105937;1255;73866;-73
2023/04/22 02:08:41;;;;;;;12.00;7.10;;;;;;;7.06;69.25;99199.59;105848;1254;61363;-72
2023/04/22 02:11:09;;;;;;;9.60;7.00;;;;;;;7.04;69.29;99201.41;105836;1254;61047;-73
2023/04/22 02:13:38;;;;;;;8.50;6.50;;;;;;;7.02;69.17;99204.30;105896;1254;72217;-74
2023/04/22 02:16:07;;;;;;;10.30;7.30;;;;;;;6.99;69.25;99203.83;105812;1254;69335;-73
2023/04/22 02:18:35;;;;;;;11.50;7.20;;;;;;;6.97;69.09;99203.00;105858;1254;72598;-74
2023/04/22 02:21:03;;;;;;;10.30;7.20;;;;;;;6.96;69.19;99206.50;105957;1260;61105;-71
2023/04/22 02:23:32;;;;;;;11.00;7.60;;;;;;;6.93;69.12;99204.91;105778;1255;60429;-73
2023/04/22 02:26:00;;;;;;;10.50;7.10;;;;;;;6.88;69.03;99206.89;105907;1259;74976;-71
2023/04/22 02:28:29;;;;;;;10.40;7.70;;;;;;;6.85;69.04;99203.57;105977;1254;70661;-70
2023/04/22 02:30:57;;;;;;;12.80;7.10;;;;;;;6.82;69.18;99204.75;105872;1257;71550;-71
2023/04/22 02:33:26;;;;;;;10.00;7.40;;;;;;;6.78;68.94;99203.37;106033;1256;60457;-71
2023/04/22 02:35:55;;;;;;;11.00;8.20;;;;;;;6.75;69.18;99205.30;105967;1255;61348;-71
2023/04/22 02:38:23;;;;;;;25.90;7.90;;;;;;;6.71;69.21;99205.11;105653;1253;74878;-72
2023/04/22 02:40:51;;;;;;;13.30;7.00;;;;;;;6.68;69.13;99209.83;105905;1256;69050;-71
2023/04/22 02:43:19;;;;;;;10.70;7.50;;;;;;;6.66;69.26;99205.64;106000;1254;74099;-72
2023/04/22 02:45:48;;;;;;;11.80;7.40;;;;;;;6.64;69.25;99205.83;105931;1257;60590;-72
2023/04/22 02:48:16;;;;;;;10.10;6.20;;;;;;;6.73;69.10;99204.77;105849;1259;60618;-71
2023/04/22 02:50:44;;;;;;;10.20;7.00;;;;;;;6.82;69.19;99204.38;105905;1256;73755;-72
2023/04/22 02:53:12;;;;;;;11.90;7.40;;;;;;;6.82;69.26;99203.80;105995;1254;71492;-73
2023/04/22 02:55:40;;;;;;;10.70;6.90;;;;;;;6.82;69.37;99202.60;106078;1254;71390;-73
2023/04/22 02:58:08;;;;;;;10.10;7.50;;;;;;;6.82;69.55;99206.07;106248;1254;60471;-71
2023/04/22 03:00:37;;;;;;;10.20;6.70;;;;;;;6.83;69.45;99205.31;106205;1255;60701;-72
2023/04/22 03:03:05;;;;;;;7.90;6.50;;;;;;;6.83;69.27;99209.21;105991;1259;72887;-74
2023/04/22 03:05:35;;;;;;;10.50;7.60;;;;;;;6.83;69.25;99211.84;105908;1254;70551;-73
2023/04/22 03:08:03;;;;;;;9.30;6.70;;;;;;;6.82;69.29;99212.98;105845;1254;72722;-73
2023/04/22 03:10:31;;;;;;;8.30;6.60;;;;;;;6.81;69.28;99211.64;106007;1256;60482;-71
2023/04/22 03:12:59;;;;;;;9.40;7.10;;;;;;;6.81;69.38;99216.45;106045;1254;60523;-73
2023/04/22 03:15:27;;;;;;;11.40;7.50;;;;;;;6.80;69.47;99218.30;105939;1254;74102;-73
2023/04/22 03:17:56;;;;;;;10.90;7.50;;;;;;;6.81;69.61;99222.63;105935;1256;69176;-74
2023/04/22 03:20:24;;;;;;;9.00;7.10;;;;;;;6.81;69.41;99220.15;105866;1254;72894;-72
2023/04/22 03:22:53;;;;;;;9.00;7.00;;;;;;;6.81;69.34;99225.44;105913;1257;60447;-73
2023/04/22 03:25:22;;;;;;;9.30;7.00;;;;;;;6.82;69.55;99227.65;105886;1254;60486;-71
2023/04/22 03:27:53;;;;;;;10.80;7.00;;;;;;;6.84;69.52;99229.55;106009;1256;74834;-70
2023/04/22 03:30:21;;;;;;;11.80;6.50;;;;;;;6.86;69.52;99231.34;105945;1254;71543;-72
2023/04/22 03:32:49;;;;;;;16.10;7.50;;;;;;;6.91;69.53;99233.34;105914;1256;71711;-73
2023/04/22 03:35:20;;;;;;;11.40;6.90;;;;;;;7.08;69.33;99235.17;105893;1254;60608;-72
2023/04/22 03:37:50;;;;;;;11.10;7.10;;;;;;;7.23;69.28;99232.51;106025;1254;61499;-72
2023/04/22 03:40:25;;;;;;;9.80;7.00;;;;;;;7.32;69.08;99238.32;105840;1254;181665;-73
2023/04/22 03:44:57;;;;;;;9.00;7.40;;;;;;;7.48;68.62;99239.64;102849;1295;599578;-73
2023/04/22 03:47:26;;;;;;;10.20;7.40;;;;;;;7.56;68.38;99242.36;105020;1266;61602;-74
2023/04/22 03:49:57;;;;;;;9.30;6.40;;;;;;;7.67;68.28;99243.65;105142;1279;60635;-74
2023/04/22 03:52:25;;;;;;;13.70;7.40;;;;;;;7.79;68.10;99246.85;104784;1267;71512;-73
2023/04/22 03:54:57;;;;;;;10.90;8.00;;;;;;;7.93;67.67;99250.77;104972;1267;70374;-74
2023/04/22 03:57:26;;;;;;;12.20;7.80;;;;;;;8.09;67.46;99247.55;104713;1268;179027;-74
2023/04/22 03:59:55;;;;;;;10.90;7.60;;;;;;;8.20;67.07;99249.55;105105;1269;61635;-71
2023/04/22 04:02:23;;;;;;;10.30;7.90;;;;;;;8.29;66.75;99252.63;105102;1264;61689;-73
2023/04/22 04:04:51;;;;;;;8.90;6.80;;;;;;;8.37;66.18;99254.61;105108;1262;72689;-74
2023/04/22 04:07:20;;;;;;;10.40;7.00;;;;;;;8.44;65.84;99259.34;105044;1264;71384;-72
2023/04/22 04:09:50;;;;;;;10.30;6.90;;;;;;;8.50;65.66;99264.90;105270;1264;74034;-74
2023/04/22 04:12:18;;;;;;;10.40;7.40;;;;;;;8.58;65.44;99268.42;105162;1263;59631;-75
2023/04/22 04:14:47;;;;;;;11.10;6.90;;;;;;;8.67;65.57;99270.77;105107;1263;61511;-75
2023/04/22 04:17:17;;;;;;;14.70;7.60;;;;;;;8.78;65.45;99269.33;105103;1269;70794;-72
2023/04/22 04:19:45;;;;;;;12.20;8.00;;;;;;;8.89;64.83;99273.98;105275;1267;70262;-74
2023/04/22 04:22:14;;;;;;;12.40;8.60;;;;;;;8.98;64.77;99274.92;105160;1270;70940;-73
2023/04/22 04:24:49;;;;;;;12.20;8.10;;;;;;;9.06;64.16;99274.14;105153;1263;60324;-71
2023/04/22 04:27:22;;;;;;;10.90;7.70;;;;;;;9.13;63.96;99273.66;105283;1267;59641;-74
2023/04/22 04:29:54;;;;;;;10.00;8.00;;;;;;;9.20;63.60;99270.98;105114;1264;71609;-74
2023/04/22 04:32:44;;;;;;;10.20;8.00;;;;;;;9.26;63.17;99276.83;105189;1264;69754;-72
2023/04/22 04:35:14;;;;;;;11.10;7.30;;;;;;;9.29;63.00;99280.00;105241;1264;73003;-73
2023/04/22 04:37:46;;;;;;;14.80;8.60;;;;;;;9.30;62.77;99282.18;105661;1254;59621;-75
2023/04/22 04:40:15;;;;;;;12.30;8.10;;;;;;;9.30;62.96;99281.20;105776;1254;59766;-73
2023/04/22 04:42:52;;;;;;;10.10;7.90;;;;;;;9.30;62.89;99286.95;105732;1259;72780;-72
2023/04/22 04:45:23;;;;;;;11.50;7.60;;;;;;;9.31;62.80;99289.54;105802;1257;70195;-73
2023/04/22 04:47:53;;;;;;;9.90;7.70;;;;;;;9.32;62.50;99291.06;105762;1257;73546;-73
2023/04/22 04:50:27;;;;;;;11.60;7.70;;;;;;;9.30;62.31;99291.89;105860;1258;60149;-72
2023/04/22 04:52:57;;;;;;;11.40;8.10;;;;;;;9.30;62.21;99294.32;105551;1257;59240;-72
2023/04/22 04:55:30;;;;;;;10.70;7.70;;;;;;;9.31;62.25;99296.11;105854;1258;72098;-77
2023/04/22 04:57:59;;;;;;;9.80;7.70;;;;;;;9.34;62.56;99297.54;105943;1254;70290;-76
2023/04/22 05:00:28;;;;;;;12.90;7.70;;;;;;;9.37;62.84;99296.77;105951;1254;74676;-74
2023/04/22 05:02:56;;;;;;;9.00;7.40;;;;;;;9.42;62.41;99303.77;105864;1261;59753;-75
2023/04/22 05:05:25;;;;;;;10.00;7.40;;;;;;;9.45;62.34;99302.09;105893;1254;60078;-73
2023/04/22 05:07:53;;;;;;;12.50;8.00;;;;;;;9.48;61.82;99301.40;105775;1259;71734;-73
2023/04/22 05:10:21;;;;;;;11.80;7.80;;;;;;;9.52;62.27;99299.93;105819;1259;70033;-73
2023/04/22 05:12:50;;;;;;;10.30;7.70;;;;;;;9.59;62.56;99296.29;105854;1253;73752;-74
2023/04/22 05:15:21;;;;;;;11.00;7.60;;;;;;;9.67;61.92;99299.30;105754;1254;60256;-75
2023/04/22 05:17:50;;;;;;;10.00;7.80;;;;;;;9.75;61.73;99301.73;105936;1254;60457;-75
2023/04/22 05:20:18;;;;;;;12.10;7.60;;;;;;;9.84;61.15;99304.66;105998;1259;73328;-75
2023/04/22 05:22:46;;;;;;;9.70;8.00;;;;;;;9.93;61.28;99300.77;105831;1260;71558;-73
2023/04/22 05:25:15;;;;;;;9.00;7.00;;;;;;;10.04;60.99;99300.77;106086;1254;73226;-73
2023/04/22 05:27:51;;;;;;;10.10;7.00;;;;;;;10.16;60.78;99300.09;106029;1255;59664;-74
2023/04/22 05:30:19;;;;;;;9.30;7.80;;;;;;;10.27;60.09;99301.52;105904;1259;60318;-74
2023/04/22 05:32:48;;;;;;;13.40;7.60;;;;;;;10.38;59.93;99306.64;106086;1254;72025;-76
2023/04/22 05:35:17;;;;;;;10.80;7.80;;;;;;;10.47;59.70;99305.77;106094;1257;70780;-77
2023/04/22 05:37:45;;;;;;;12.60;8.30;;;;;;;10.57;59.15;99305.98;105824;1253;73787;-77
2023/04/22 05:40:14;;;;;;;11.10;7.50;;;;;;;10.67;59.05;99306.48;106823;1253;60670;-76
2023/04/22 05:42:42;;;;;;;10.40;8.30;;;;;;;10.77;58.62;99307.21;106856;1254;60145;-76
2023/04/22 05:45:11;;;;;;;13.20;8.00;;;;;;;10.87;57.93;99311.81;106052;1252;73123;-77
2023/04/22 05:47:40;;;;;;;11.40;8.30;;;;;;;10.96;57.43;99316.17;105868;1254;70364;-77
2023/04/22 05:50:08;;;;;;;10.10;7.50;;;;;;;11.07;57.52;99314.94;105960;1254;72686;-74
2023/04/22 05:52:43;;;;;;;11.90;7.60;;;;;;;11.19;57.31;99314.05;105710;1254;61661;-75
2023/04/22 05:55:14;;;;;;;9.70;6.90;;;;;;;11.32;57.19;99317.42;105915;1251;59747;-74
2023/04/22 05:57:43;;;;;;;9.80;7.80;;;;;;;11.44;56.68;99317.11;105838;1257;72956;-75
2023/04/22 06:00:22;;;;;;;11.20;8.30;;;;;;;11.57;56.52;99316.34;105900;1255;69382;-74
2023/04/22 06:02:56;;;;;;;10.30;7.70;;;;;;;11.70;56.25;99318.50;105961;1255;70945;-74
2023/04/22 06:05:25;;;;;;;8.80;7.70;;;;;;;11.82;56.02;99319.19;106010;1254;59611;-74
2023/04/22 06:07:53;;;;;;;11.00;7.60;;;;;;;11.95;55.84;99319.41;105923;1259;60501;-74
2023/04/22 06:10:21;;;;;;;9.60;8.10;;;;;;;12.09;55.71;99314.56;105951;1254;71880;-71
2023/04/22 06:12:49;;;;;;;12.00;8.50;;;;;;;12.21;55.51;99312.15;105997;1253;71051;-75
2023/04/22 06:15:17;;;;;;;12.00;8.20;;;;;;;12.31;55.12;99312.08;105907;1258;71868;-72
2023/04/22 06:17:47;;;;;;;11.40;7.90;;;;;;;12.48;54.87;99317.02;105927;1255;59684;-73
2023/04/22 06:20:15;;;;;;;10.50;7.20;;;;;;;12.61;54.77;99319.47;106056;1254;60172;-76
2023/04/22 06:22:44;;;;;;;11.80;7.90;;;;;;;12.74;54.59;99316.91;105964;1253;73070;-75
2023/04/22 06:25:12;;;;;;;11.50;8.10;;;;;;;12.86;54.10;99315.56;105823;1254;71161;-72
2023/04/22 06:27:40;;;;;;;10.90;7.50;;;;;;;12.93;54.16;99313.70;106015;1253;72913;-76
2023/04/22 06:30:10;;;;;;;12.00;8.20;;;;;;;13.02;54.03;99314.01;106033;1253;59960;-75
2023/04/22 06:32:39;;;;;;;12.20;8.40;;;;;;;13.12;53.58;99315.42;106814;1253;61481;-75
2023/04/22 06:35:08;;;;;;;10.50;8.80;;;;;;;13.18;53.43;99315.14;108256;1253;73405;-75
2023/04/22 06:37:36;;;;;;;11.20;8.30;;;;;;;13.26;53.65;99319.13;106500;1254;68358;-74
2023/04/22 06:40:07;;;;;;;10.00;8.10;;;;;;;13.36;53.28;99318.05;106153;1254;73879;-73
2023/04/22 06:42:48;;;;;;;12.20;7.40;;;;;;;13.47;52.96;99324.09;106107;1252;60259;-74
2023/04/22 06:45:19;;;;;;;11.70;8.70;;;;;;;13.58;52.80;99325.00;106037;1256;59644;-77
2023/04/22 06:48:03;;;;;;;8.80;7.90;;;;;;;13.70;52.59;99322.15;105941;1257;73175;-76
2023/04/22 06:50:45;;;;;;;12.40;8.30;;;;;;;13.79;52.82;99326.41;105853;1254;70399;-73
2023/04/22 06:53:13;;;;;;;9.10;8.00;;;;;;;13.91;52.54;99328.30;105802;1253;71944;-73
2023/04/22 06:55:41;;;;;;;9.70;7.80;;;;;;;14.03;52.48;99332.41;105987;1257;60388;-74
2023/04/22 06:58:09;;;;;;;10.50;7.80;;;;;;;14.13;52.26;99330.68;105931;1253;60095;-76
2023/04/22 07:00:38;;;;;;;13.60;8.60;;;;;;;14.24;52.44;99334.45;105915;1257;74702;-74
2023/04/22 07:03:06;;;;;;;10.60;8.40;;;;;;;14.39;52.10;99330.23;105790;1258;71499;-73
2023/04/22 07:05:34;;;;;;;11.30;8.90;;;;;;;14.54;52.01;99333.00;105952;1253;72153;-73
2023/04/22 07:08:07;;;;;;;12.70;8.40;;;;;;;14.71;51.51;99332.23;105858;1253;61463;-75
2023/04/22 07:10:35;;;;;;;11.50;8.60;;;;;;;14.82;51.32;99330.45;105859;1253;60039;-76
2023/04/22 07:13:22;;;;;;;10.00;7.90;;;;;;;14.96;50.90;99335.48;105790;1254;72069;-73
2023/04/22 07:15:50;;;;;;;11.80;9.00;;;;;;;15.08;50.71;99336.56;105994;1252;70552;-73
2023/04/22 07:18:18;;;;;;;12.80;8.90;;;;;;;15.22;50.45;99339.34;105808;1260;72948;-75
2023/04/22 07:20:46;;;;;;;11.60;8.70;;;;;;;15.32;50.41;99338.95;105962;1252;60274;-75
2023/04/22 07:23:14;;;;;;;13.80;9.20;;;;;;;15.44;50.16;99341.27;105866;1258;60529;-74
2023/04/22 07:25:42;;;;;;;17.90;8.90;;;;;;;15.57;49.51;99346.64;106002;1253;71873;-75
2023/04/22 07:28:10;;;;;;;11.40;8.90;;;;;;;15.68;49.05;99346.77;105883;1253;69302;-76
2023/04/22 07:30:39;;;;;;;13.10;9.40;;;;;;;15.78;48.79;99349.02;106108;1255;72725;-82
2023/04/22 07:33:07;;;;;;;13.20;9.50;;;;;;;15.89;48.44;99349.77;106005;1253;61621;-74
2023/04/22 07:35:36;;;;;;;11.10;9.00;;;;;;;16.01;48.11;99346.96;106107;1252;61580;-76
2023/04/22 07:38:04;;;;;;;14.50;9.80;;;;;;;16.11;47.84;99348.85;105983;1253;72986;-73
2023/04/22 07:40:34;;;;;;;13.40;9.00;;;;;;;16.23;47.47;99351.93;106057;1253;71331;-72
2023/04/22 07:43:04;;;;;;;11.40;8.50;;;;;;;16.36;46.97;99356.03;105834;1260;71629;-71
2023/04/22 07:45:32;;;;;;;13.10;9.30;;;;;;;16.45;46.43;99355.11;105946;1256;59965;-73
2023/04/22 07:48:01;;;;;;;13.60;9.00;;;;;;;16.51;45.85;99355.60;105896;1258;59809;-74
2023/04/22 07:50:29;;;;;;;11.60;8.40;;;;;;;16.61;45.75;99356.77;105982;1257;72861;-74
2023/04/22 07:52:57;;;;;;;14.20;9.70;;;;;;;16.72;45.02;99357.85;105992;1253;69510;-73
2023/04/22 07:55:25;;;;;;;11.00;8.30;;;;;;;16.85;44.61;99360.11;106009;1253;71916;-71
2023/04/22 07:57:54;;;;;;;12.20;8.60;;;;;;;16.98;44.18;99363.06;106018;1256;60444;-69
2023/04/22 08:00:23;;;;;;;13.70;8.70;;;;;;;17.04;43.58;99365.55;106027;1254;60687;-73
2023/04/22 08:02:51;;;;;;;17.00;10.20;;;;;;;17.08;42.95;99363.45;105834;1259;72792;-75
2023/04/22 08:05:19;;;;;;;11.90;8.00;;;;;;;17.14;42.96;99366.10;106111;1252;71385;-76
2023/04/22 08:07:48;;;;;;;11.80;9.00;;;;;;;17.24;42.58;99366.58;106001;1254;73547;-75
2023/04/22 08:10:16;;;;;;;11.50;8.10;;;;;;;17.35;41.81;99364.82;106060;1252;60368;-74
2023/04/22 08:12:44;;;;;;;11.60;8.80;;;;;;;17.45;41.79;99365.30;106306;1253;60688;-76
2023/04/22 08:15:13;;;;;;;13.00;8.50;;;;;;;17.62;41.64;99365.73;106429;1253;73182;-76
2023/04/22 08:17:41;;;;;;;10.40;8.00;;;;;;;17.79;41.28;99366.45;106204;1253;70118;-74
2023/04/22 08:20:09;;;;;;;15.50;8.70;;;;;;;17.94;41.18;99366.63;107026;1253;72913;-74
2023/04/22 08:22:38;;;;;;;11.60;8.40;;;;;;;18.06;40.72;99365.88;106703;1252;61531;-73
2023/04/22 08:25:07;;;;;;;10.60;8.30;;;;;;;18.11;39.19;99372.23;106652;1253;60432;-72
2023/04/22 08:27:36;;;;;;;12.00;8.20;;;;;;;18.08;38.96;99368.70;106291;1253;73278;-73
2023/04/22 08:30:05;;;;;;;9.30;7.50;;;;;;;18.04;38.53;99369.55;106182;1258;70685;-71
2023/04/22 08:32:34;;;;;;;9.90;8.70;;;;;;;17.96;38.68;99370.35;106139;1253;73660;-73
2023/04/22 08:35:02;;;;;;;10.50;8.40;;;;;;;17.95;38.94;99368.05;106474;1253;60476;-74
2023/04/22 08:37:33;;;;;;;9.90;8.90;;;;;;;18.00;38.90;99372.78;107313;1253;60495;-73
2023/04/22 08:40:01;;;;;;;10.70;8.00;;;;;;;18.11;39.06;99367.60;106672;1254;72901;-73
2023/04/22 08:42:29;;;;;;;17.90;8.40;;;;;;;18.28;38.95;99369.28;106200;1254;70566;-73
2023/04/22 08:44:57;;;;;;;10.20;7.40;;;;;;;18.39;38.54;99367.06;106315;1256;71444;-72
2023/04/22 08:47:25;;;;;;;12.10;7.00;;;;;;;18.51;38.12;99369.84;106390;1255;60544;-73
2023/04/22 08:49:54;;;;;;;10.30;6.90;;;;;;;18.66;38.12;99370.56;106528;1255;60554;-75
2023/04/22 08:52:22;;;;;;;8.90;6.90;;;;;;;18.86;37.54;99369.16;106758;1258;74597;-72
2023/04/22 08:54:51;;;;;;;16.20;8.00;;;;;;;18.99;37.58;99367.15;106640;1252;69778;-74
2023/04/22 08:57:20;;;;;;;8.80;7.10;;;;;;;19.11;37.94;99365.82;106599;1252;70875;-76
2023/04/22 08:59:48;;;;;;;10.10;6.80;;;;;;;19.30;36.81;99367.06;106464;1253;60400;-76
2023/04/22 09:02:19;;;;;;;10.30;6.80;;;;;;;19.48;37.04;99369.41;106440;1258;60441;-72
2023/04/22 09:04:49;;;;;;;12.90;7.40;;;;;;;19.68;37.07;99368.29;106328;1253;71794;-71
2023/04/22 09:07:24;;;;;;;12.10;7.40;;;;;;;19.91;36.92;99371.63;106380;1253;69975;-74
2023/04/22 09:09:53;;;;;;;10.70;8.10;;;;;;;20.24;35.89;99374.19;106708;1256;72743;-76
2023/04/22 09:12:22;;;;;;;9.20;7.60;;;;;;;20.64;35.52;99371.54;107351;1253;60553;-74
2023/04/22 09:14:51;;;;;;;12.00;7.80;;;;;;;21.19;34.74;99359.64;106558;1253;61060;-75
2023/04/22 09:17:33;;;;;;;10.30;7.70;;;;;;;21.80;33.63;99367.11;106272;1253;74353;-74
2023/04/22 09:20:02;;;;;;;7.90;7.10;;;;;;;22.42;32.42;99365.67;106585;1258;71414;-76
2023/04/22 09:22:45;;;;;;;9.20;6.60;;;;;;;22.91;31.58;99365.38;106298;1253;72634;-72
2023/04/22 09:25:18;;;;;;;9.10;7.30;;;;;;;23.38;31.20;99365.57;106046;1253;61184;-74
2023/04/22 09:27:59;;;;;;;7.20;6.50;;;;;;;23.83;30.77;99363.71;106489;1253;60461;-76
2023/04/22 09:30:36;;;;;;;12.40;7.30;;;;;;;24.34;30.13;99367.20;106388;1253;74143;-74
2023/04/22 09:33:06;;;;;;;7.90;7.10;;;;;;;24.71;29.07;99368.64;106851;1253;70719;-75
2023/04/22 09:35:35;;;;;;;7.90;6.90;;;;;;;24.96;29.04;99366.96;106398;1253;73405;-75
2023/04/22 09:38:06;;;;;;;7.60;6.60;;;;;;;25.24;28.55;99367.61;106303;1254;60496;-73
2023/04/22 09:40:36;;;;;;;7.50;6.70;;;;;;;25.45;28.15;99360.96;106201;1258;60777;-75
2023/04/22 09:43:06;;;;;;;9.30;7.00;;;;;;;25.65;28.14;99363.13;106498;1252;74728;-74
2023/04/22 09:45:39;;;;;;;8.50;6.90;;;;;;;25.86;27.84;99364.95;106326;1253;70640;-75
2023/04/22 09:48:09;;;;;;;10.40;6.90;;;;;;;26.07;27.60;99361.95;106350;1253;72348;-75
2023/04/22 09:50:40;;;;;;;7.60;6.60;;;;;;;26.24;27.56;99363.45;106333;1253;60389;-72
2023/04/22 09:53:15;;;;;;;6.70;5.90;;;;;;;26.59;27.39;99363.95;106024;1253;61228;-75
2023/04/22 09:55:47;;;;;;;7.10;6.40;;;;;;;27.05;27.02;99358.19;106312;1253;74137;-72
2023/04/22 09:58:18;;;;;;;8.50;5.70;;;;;;;27.32;25.78;99358.02;106188;1253;70671;-73
2023/04/22 10:00:52;;;;;;;7.30;5.70;;;;;;;27.48;25.39;99356.93;106692;1257;72385;-71
2023/04/22 10:03:20;;;;;;;6.40;5.80;;;;;;;27.65;25.13;99356.36;106309;1255;60461;-73
2023/04/22 10:05:48;;;;;;;7.20;5.50;;;;;;;27.93;25.19;99356.84;106135;1254;60545;-75
2023/04/22 10:08:17;;;;;;;6.40;5.10;;;;;;;28.32;24.44;99352.52;106281;1253;72871;-73
2023/04/22 10:10:45;;;;;;;7.10;5.10;;;;;;;28.63;23.87;99352.30;105984;1252;69159;-72
2023/04/22 10:13:16;;;;;;;8.00;5.40;;;;;;;28.84;23.45;99355.58;105783;1258;73727;-72
2023/04/22 10:15:49;;;;;;;6.30;5.30;;;;;;;28.95;23.52;99359.64;106167;1253;62078;-72
2023/04/22 10:18:21;;;;;;;6.50;5.40;;;;;;;29.14;23.08;99358.26;106013;1253;60444;-72
2023/04/22 10:20:50;;;;;;;6.60;5.10;;;;;;;29.23;23.47;99354.71;105912;1253;73425;-73
2023/04/22 10:23:22;;;;;;;8.60;5.50;;;;;;;29.44;23.18;99354.04;105905;1254;70595;-73
2023/04/22 10:25:52;;;;;;;6.10;5.00;;;;;;;29.66;22.78;99352.73;106023;1253;72818;-72
2023/04/22 10:28:22;;;;;;;9.40;5.50;;;;;;;29.88;22.36;99346.34;105982;1252;61076;-74
2023/04/22 10:30:50;;;;;;;7.00;5.20;;;;;;;30.14;22.29;99347.66;105953;1253;61519;-71
2023/04/22 10:33:30;;;;;;;6.50;5.10;;;;;;;30.41;22.39;99348.66;105803;1255;74067;-73
2023/04/22 10:36:07;;;;;;;9.50;5.70;;;;;;;30.73;21.54;99350.04;105931;1255;69485;-71
2023/04/22 10:38:39;;;;;;;5.70;5.20;;;;;;;31.01;20.90;99350.64;106133;1253;72967;-76
2023/04/22 10:41:14;;;;;;;6.40;5.50;;;;;;;30.95;20.72;99353.68;105936;1253;60483;-73
2023/04/22 10:43:43;;;;;;;6.60;5.60;;;;;;;30.83;21.10;99349.36;106003;1253;60639;-75
2023/04/22 10:46:30;;;;;;;6.50;5.50;;;;;;;31.03;21.23;99347.00;106032;1255;72929;-75
2023/04/22 10:49:05;;;;;;;6.00;5.40;;;;;;;31.28;21.05;99342.83;105783;1258;70727;-75
2023/04/22 10:51:44;;;;;;;6.20;5.70;;;;;;;31.59;20.89;99344.67;105999;1256;71625;-76
2023/04/22 10:54:36;;;;;;;6.40;5.30;;;;;;;31.94;21.12;99344.25;106025;1252;61053;-74
2023/04/22 10:57:13;;;;;;;6.30;5.70;;;;;;;32.39;21.34;99339.59;105930;1253;60572;-74
2023/04/22 10:59:45;;;;;;;5.00;4.60;;;;;;;32.79;20.99;99342.91;106175;1253;73880;-77
2023/04/22 11:02:15;;;;;;;5.80;4.80;;;;;;;33.09;20.71;99347.85;105955;1254;70209;-77
2023/04/22 11:04:43;;;;;;;5.40;4.90;;;;;;;33.16;20.43;99343.94;105965;1255;71710;-75
2023/04/22 11:07:15;;;;;;;5.30;4.80;;;;;;;33.16;20.79;99345.73;105933;1253;60769;-74
2023/04/22 11:09:44;;;;;;;5.20;4.80;;;;;;;33.23;20.78;99348.23;105910;1253;60417;-74
2023/04/22 11:12:34;;;;;;;5.90;5.40;;;;;;;33.41;20.36;99342.70;106098;1256;75290;-76
2023/04/22 11:15:15;;;;;;;6.00;5.10;;;;;;;33.65;20.58;99349.26;105905;1253;70289;-76
2023/04/22 11:17:45;;;;;;;7.90;5.30;;;;;;;33.86;20.36;99351.73;105818;1253;72116;-73
2023/04/22 11:20:16;;;;;;;5.70;5.20;;;;;;;34.07;19.89;99350.11;105928;1257;60474;-73
2023/04/22 11:22:52;;;;;;;7.40;5.40;;;;;;;33.88;19.45;99357.19;105923;1252;61152;-73
2023/04/22 11:25:20;;;;;;;5.20;4.80;;;;;;;33.77;19.65;99353.77;105813;1259;74919;-74
2023/04/22 11:27:48;;;;;;;5.60;5.10;;;;;;;33.81;19.90;99357.86;105838;1252;70977;-75
2023/04/22 11:30:21;;;;;;;5.50;4.90;;;;;;;34.11;19.77;99359.48;105840;1258;73690;-75
2023/04/22 11:32:57;;;;;;;5.50;4.80;;;;;;;34.50;19.11;99355.54;105954;1253;61391;-76
2023/04/22 11:35:29;;;;;;;5.20;4.70;;;;;;;34.10;19.04;99356.88;105955;1252;60430;-76
2023/04/22 11:38:04;;;;;;;6.60;4.90;;;;;;;33.78;19.40;99358.59;105857;1253;72854;-75
2023/04/22 11:40:42;;;;;;;5.40;4.90;;;;;;;33.84;19.29;99353.17;105921;1253;71303;-74